KTCC/TCC METAR and TAF weather

Enter ICAO airport designator
Station Type Date Time Source
KTCC METAR 2022/01/26 06:53 UTC NOAA

KTCC 260653Z AUTO 07016KT 7SM -SN OVC050 M04/M09 A3025 RMK AO2 SNB11 SLP251 P0000 T10391094 401061067 $


Station Type Date Time Source
KTCC Decoded METAR 2022/01/26 06:53 UTC NOAA

TUCUMCARI MUNICIPAL AIRPORT , NM, United States (KTCC) 35-11N 103-36W 1235M
Jan 26, 2022 - 01:53 AM EST / 2022.01.26 0653 UTC
Wind: from the ENE (070 degrees) at 18 MPH (16 KT):0
Visibility: 7 mile(s):0
Sky conditions: overcast
Weather: light snow
Precipitation last hour: A trace
Temperature: 25.0 F (-3.9 C)
Windchill: 12 F (-11 C):1
Dew Point: 15.1 F (-9.4 C)
Relative Humidity: 65%
Pressure (altimeter): 30.25 in. Hg (1024 hPa)
ob: KTCC 260653Z AUTO 07016KT 7SM -SN OVC050 M04/M09 A3025 RMK AO2 SNB11 SLP251 P0000 T10391094 401061067
cycle: 7

Station Type Date Time Source
KTCC TAF 2022/01/26 06:30 UTC NOAA

TAF KTCC 260526Z 2606/2706 06014G22KT P6SM SCT035 OVC050
FM260800 07009KT 5SM -SHSN OVC025
TEMPO 2609/2613 1SM -SN BR OVC008
FM261600 VRB05KT P6SM BKN020
FM261900 23010G15KT P6SM FEW025 SCT035
FM270300 24009KT P6SM SKC

Example: see airport list